createdAt,value
2022-12-17T00:00:49.349Z,102040.25
2022-12-17T00:03:35.141Z,102041.09
2022-12-17T00:06:20.382Z,102034.28
2022-12-17T00:09:05.358Z,102042.97
2022-12-17T00:11:50.364Z,102045.41
2022-12-17T00:14:35.650Z,102042.13
2022-12-17T00:17:20.553Z,102032.88
2022-12-17T00:20:07.913Z,102037.97
2022-12-17T00:22:52.831Z,102042.97
2022-12-17T00:25:38.302Z,102043.94
2022-12-17T00:28:28.755Z,102065.66
2022-12-17T00:31:13.945Z,102064.59
2022-12-17T00:33:58.993Z,102062.13
2022-12-17T00:36:44.826Z,102069.00
2022-12-17T00:39:30.358Z,102067.22
2022-12-17T00:42:15.537Z,102070.63
2022-12-17T00:45:00.986Z,102072.25
2022-12-17T00:47:45.925Z,102074.97
2022-12-17T00:50:30.851Z,102069.53
2022-12-17T00:53:15.814Z,102077.00
2022-12-17T00:56:00.970Z,102071.34
2022-12-17T00:58:45.851Z,102078.22
2022-12-17T01:04:16.069Z,102086.56
2022-12-17T01:07:00.950Z,102081.63
2022-12-17T01:09:45.782Z,102078.41
2022-12-17T01:12:30.704Z,102083.50
2022-12-17T01:15:15.595Z,102083.28
2022-12-17T01:18:00.714Z,102086.88
2022-12-17T01:20:45.584Z,102087.06
2022-12-17T01:23:30.479Z,102089.72
2022-12-17T01:26:16.230Z,102088.94
2022-12-17T01:29:01.788Z,102092.41
2022-12-17T01:31:46.755Z,102097.31
2022-12-17T01:34:32.029Z,102102.97
2022-12-17T01:37:17.056Z,102103.09
2022-12-17T01:40:02.013Z,102092.91
2022-12-17T01:42:58.937Z,102100.72
2022-12-17T01:45:47.378Z,102100.69
2022-12-17T01:48:35.645Z,102101.38
2022-12-17T01:51:21.607Z,102101.34
2022-12-17T01:54:09.850Z,102108.97
2022-12-17T01:56:56.148Z,102115.75
2022-12-17T01:59:52.043Z,102120.63
2022-12-17T02:02:36.986Z,102119.09
2022-12-17T02:05:22.263Z,102119.66
2022-12-17T02:08:49.274Z,102124.19
2022-12-17T02:11:48.744Z,102130.94
2022-12-17T02:14:58.584Z,102120.03
2022-12-17T02:17:48.973Z,102123.38
2022-12-17T02:20:51.007Z,102120.75
2022-12-17T02:23:39.426Z,102126.75
2022-12-17T02:26:53.772Z,102127.53
2022-12-17T02:29:41.362Z,102126.84
2022-12-17T02:32:29.453Z,102129.19
2022-12-17T02:35:15.296Z,102119.09
2022-12-17T02:38:07.399Z,102128.53
2022-12-17T02:40:56.975Z,102129.53
2022-12-17T02:43:44.373Z,102123.28
2022-12-17T02:46:32.493Z,102136.19
2022-12-17T02:49:17.990Z,102141.09
2022-12-17T02:52:03.993Z,102146.94
2022-12-17T02:54:52.048Z,102151.00
2022-12-17T02:57:41.084Z,102156.50
2022-12-17T03:00:29.630Z,102153.16
2022-12-17T03:03:14.680Z,102144.84
2022-12-17T03:05:59.951Z,102151.72
2022-12-17T03:08:44.870Z,102150.00
2022-12-17T03:11:29.713Z,102157.56
2022-12-17T03:14:14.603Z,102166.16
2022-12-17T03:17:00.178Z,102159.78
2022-12-17T03:19:45.444Z,102153.94
2022-12-17T03:22:33.160Z,102154.88
2022-12-17T03:25:18.140Z,102162.47
2022-12-17T03:28:03.084Z,102161.69
2022-12-17T03:30:49.272Z,102158.47
2022-12-17T03:33:35.377Z,102157.38
2022-12-17T03:36:21.136Z,102164.16
2022-12-17T03:39:06.075Z,102163.13
2022-12-17T03:41:51.056Z,102170.09
2022-12-17T03:44:36.062Z,102176.69
2022-12-17T03:47:20.964Z,102179.41
2022-12-17T03:50:05.880Z,102177.63
2022-12-17T03:52:50.737Z,102173.53
2022-12-17T03:55:36.314Z,102176.06
2022-12-17T03:58:21.216Z,102182.06
2022-12-17T04:01:06.820Z,102178.06
2022-12-17T04:03:51.792Z,102181.25
2022-12-17T04:06:36.732Z,102179.47
2022-12-17T04:09:22.215Z,102175.91
2022-12-17T04:12:07.130Z,102177.75
2022-12-17T04:14:52.169Z,102194.16
2022-12-17T04:17:37.554Z,102195.22
2022-12-17T04:20:23.371Z,102190.88
2022-12-17T04:23:08.404Z,102197.53
2022-12-17T04:25:53.386Z,102206.78
2022-12-17T04:28:38.589Z,102211.97
2022-12-17T04:31:25.312Z,102201.56
2022-12-17T04:34:10.509Z,102206.59
2022-12-17T04:36:55.582Z,102203.78
2022-12-17T04:39:42.957Z,102205.66
2022-12-17T04:42:27.953Z,102202.34
2022-12-17T04:45:12.745Z,102212.59
2022-12-17T04:47:57.686Z,102212.44
2022-12-17T04:50:43.089Z,102211.63
2022-12-17T04:53:28.882Z,102218.50
2022-12-17T04:56:14.934Z,102217.66
2022-12-17T04:58:59.765Z,102222.88
2022-12-17T05:02:05.086Z,102220.13
2022-12-17T05:04:50.460Z,102232.00
2022-12-17T05:07:35.349Z,102226.84
2022-12-17T05:10:20.743Z,102231.94
2022-12-17T05:13:05.564Z,102231.94
2022-12-17T05:15:53.293Z,102228.75
2022-12-17T05:18:39.160Z,102218.78
2022-12-17T05:21:24.449Z,102224.06
2022-12-17T05:24:09.911Z,102233.53
2022-12-17T05:26:54.710Z,102233.97
2022-12-17T05:29:42.496Z,102237.97
2022-12-17T05:32:27.344Z,102232.25
2022-12-17T05:35:12.797Z,102241.75
2022-12-17T05:37:57.709Z,102248.66
2022-12-17T05:40:42.674Z,102249.38
2022-12-17T05:43:31.075Z,102246.28
2022-12-17T05:46:18.187Z,102248.00
2022-12-17T05:49:03.413Z,102251.56
2022-12-17T05:51:48.312Z,102256.47
2022-12-17T05:54:34.045Z,102255.22
2022-12-17T05:57:19.299Z,102246.59
2022-12-17T06:00:04.349Z,102244.78
2022-12-17T06:02:49.845Z,102254.19
2022-12-17T06:05:34.942Z,102260.88
2022-12-17T06:08:27.591Z,102257.31
2022-12-17T06:11:13.642Z,102260.56
2022-12-17T06:13:58.458Z,102263.22
2022-12-17T06:16:43.657Z,102270.03
2022-12-17T06:19:28.876Z,102267.59
2022-12-17T06:22:14.155Z,102275.34
2022-12-17T06:24:59.073Z,102269.03
2022-12-17T06:27:43.866Z,102272.59
2022-12-17T06:30:29.835Z,102276.78
2022-12-17T06:33:26.881Z,102280.03
2022-12-17T06:36:19.703Z,102281.75
2022-12-17T06:39:06.808Z,102286.97
2022-12-17T06:44:19.294Z,102295.13
2022-12-17T06:47:04.577Z,102290.09
2022-12-17T06:49:50.039Z,102301.25
2022-12-17T06:52:34.955Z,102295.31
2022-12-17T06:55:20.269Z,102295.44
2022-12-17T06:58:05.182Z,102292.78
2022-12-17T07:00:50.019Z,102295.09
2022-12-17T07:03:36.140Z,102296.75
2022-12-17T07:06:21.589Z,102301.50
2022-12-17T07:09:06.470Z,102304.97
2022-12-17T07:11:51.289Z,102307.78
2022-12-17T07:14:36.191Z,102306.44
2022-12-17T07:17:21.059Z,102308.94
2022-12-17T07:20:05.980Z,102313.00
2022-12-17T07:22:50.858Z,102317.16
2022-12-17T07:25:35.626Z,102323.72
2022-12-17T07:28:20.470Z,102330.72
2022-12-17T07:31:12.914Z,102338.19
2022-12-17T07:33:57.749Z,102326.28
2022-12-17T07:36:42.718Z,102337.38
2022-12-17T07:39:27.715Z,102332.41
2022-12-17T07:42:12.729Z,102340.16
2022-12-17T07:45:05.225Z,102342.91
2022-12-17T07:47:50.114Z,102351.53
2022-12-17T07:50:34.804Z,102356.47
2022-12-17T07:53:21.311Z,102359.28
2022-12-17T07:56:08.105Z,102361.81
2022-12-17T07:58:52.951Z,102360.09
2022-12-17T08:01:37.893Z,102361.91
2022-12-17T08:04:23.240Z,102368.59
2022-12-17T08:07:13.846Z,102376.09
2022-12-17T08:09:59.764Z,102363.75
2022-12-17T08:12:44.700Z,102367.53
2022-12-17T08:15:29.994Z,102366.13
2022-12-17T08:18:26.492Z,102381.59
2022-12-17T08:21:12.328Z,102382.28
2022-12-17T08:23:57.189Z,102383.31
2022-12-17T08:26:47.285Z,102381.13
2022-12-17T08:29:32.968Z,102387.91
2022-12-17T08:32:17.858Z,102393.78
2022-12-17T08:35:02.714Z,102400.50
2022-12-17T08:37:49.123Z,102407.78
2022-12-17T08:40:34.439Z,102402.38
2022-12-17T08:43:19.331Z,102405.03
2022-12-17T08:46:06.453Z,102412.59
2022-12-17T08:48:51.946Z,102407.75
2022-12-17T08:51:37.334Z,102412.34
2022-12-17T08:54:22.735Z,102415.72
2022-12-17T08:57:07.687Z,102424.25
2022-12-17T08:59:53.369Z,102427.81
2022-12-17T09:02:39.185Z,102418.56
2022-12-17T09:05:24.847Z,102427.16
2022-12-17T09:08:25.720Z,102426.75
2022-12-17T09:11:11.745Z,102430.03
2022-12-17T09:13:56.678Z,102438.78
2022-12-17T09:16:42.174Z,102438.78
2022-12-17T09:19:29.449Z,102442.34
2022-12-17T09:22:14.348Z,102445.75
2022-12-17T09:25:02.456Z,102448.94
2022-12-17T09:27:47.378Z,102448.72
2022-12-17T09:30:32.249Z,102445.28
2022-12-17T09:33:17.323Z,102452.47
2022-12-17T09:36:02.132Z,102449.09
2022-12-17T09:38:47.224Z,102446.44
2022-12-17T09:41:44.393Z,102452.25
2022-12-17T09:44:32.621Z,102461.47
2022-12-17T09:47:44.485Z,102474.06
2022-12-17T09:50:34.538Z,102467.13
2022-12-17T09:53:22.645Z,102467.75
2022-12-17T09:56:11.665Z,102465.28
2022-12-17T09:58:59.108Z,102464.75
2022-12-17T10:01:51.068Z,102478.13
2022-12-17T10:04:42.742Z,102477.66
2022-12-17T10:07:38.617Z,102483.91
2022-12-17T10:10:39.310Z,102479.72
2022-12-17T10:13:37.343Z,102490.03
2022-12-17T10:16:39.330Z,102489.66
2022-12-17T10:19:34.217Z,102490.72
2022-12-17T10:22:30.335Z,102488.13
2022-12-17T10:25:15.134Z,102493.59
2022-12-17T10:28:00.115Z,102485.81
2022-12-17T10:30:47.042Z,102487.88
2022-12-17T10:33:38.447Z,102484.56
2022-12-17T10:36:38.231Z,102488.16
2022-12-17T10:39:24.557Z,102489.84
2022-12-17T10:42:10.440Z,102500.09
2022-12-17T10:44:56.861Z,102499.56
2022-12-17T10:47:46.198Z,102498.44
2022-12-17T10:50:38.709Z,102503.59
2022-12-17T10:53:36.905Z,102501.47
2022-12-17T10:56:23.074Z,102506.13
2022-12-17T10:59:11.449Z,102503.13
2022-12-17T11:02:00.892Z,102515.91
2022-12-17T11:04:54.787Z,102513.59
2022-12-17T11:07:45.946Z,102515.34
2022-12-17T11:10:47.610Z,102521.19
2022-12-17T11:13:51.846Z,102524.88
2022-12-17T11:17:13.415Z,102515.19
2022-12-17T11:20:24.892Z,102521.34
2022-12-17T11:23:18.866Z,102516.66
2022-12-17T11:26:08.859Z,102522.97
2022-12-17T11:28:54.931Z,102513.25
2022-12-17T11:32:08.380Z,102512.28
2022-12-17T11:35:31.307Z,102513.50
2022-12-17T11:38:43.129Z,102512.88
2022-12-17T11:41:33.955Z,102511.88
2022-12-17T11:44:31.406Z,102513.50
2022-12-17T11:47:37.835Z,102521.78
2022-12-17T11:50:34.409Z,102514.56
2022-12-17T11:53:49.831Z,102512.94
2022-12-17T11:56:40.677Z,102512.88
2022-12-17T12:00:05.351Z,102513.88
2022-12-17T12:03:09.101Z,102509.28
2022-12-17T12:06:16.122Z,102504.94
2022-12-17T12:09:34.407Z,102501.88
2022-12-17T12:12:53.345Z,102502.00
2022-12-17T12:15:50.156Z,102504.19
2022-12-17T12:18:59.441Z,102499.19
2022-12-17T12:21:58.510Z,102503.69
2022-12-17T12:25:10.792Z,102505.06
2022-12-17T12:28:14.375Z,102498.09
2022-12-17T12:31:04.628Z,102497.47
2022-12-17T12:34:12.177Z,102495.50
2022-12-17T12:37:00.031Z,102493.34
2022-12-17T12:39:55.855Z,102500.97
2022-12-17T12:42:57.518Z,102495.88
2022-12-17T12:46:16.929Z,102493.50
2022-12-17T12:49:15.805Z,102499.84
2022-12-17T12:52:01.599Z,102505.97
2022-12-17T12:55:01.823Z,102500.72
2022-12-17T12:57:48.366Z,102499.19
2022-12-17T13:00:55.828Z,102493.78
2022-12-17T13:03:46.326Z,102488.88
2022-12-17T13:06:16.002Z,102489.13
2022-12-17T13:08:42.500Z,102493.53
2022-12-17T13:11:25.850Z,102498.09
2022-12-17T13:13:57.370Z,102487.56
2022-12-17T13:16:52.094Z,102476.59
2022-12-17T13:19:31.284Z,102469.16
2022-12-17T13:22:21.958Z,102470.06
2022-12-17T13:24:53.458Z,102472.84
2022-12-17T13:27:34.416Z,102466.34
2022-12-17T13:30:21.642Z,102473.38
2022-12-17T13:33:16.479Z,102472.59
2022-12-17T13:36:20.227Z,102480.13
2022-12-17T13:39:39.549Z,102475.16
2022-12-17T13:42:17.952Z,102474.66
2022-12-17T13:44:46.664Z,102479.88
2022-12-17T13:47:30.637Z,102481.50
2022-12-17T13:50:32.218Z,102485.03
2022-12-17T13:52:45.899Z,102480.88
2022-12-17T13:55:25.557Z,102474.16
2022-12-17T13:57:53.620Z,102471.75
2022-12-17T14:00:24.995Z,102476.28
2022-12-17T14:02:52.966Z,102478.09
2022-12-17T14:05:38.300Z,102482.63
2022-12-17T14:08:05.964Z,102477.28
2022-12-17T14:10:32.999Z,102480.63
2022-12-17T14:13:08.590Z,102472.63
2022-12-17T14:15:35.256Z,102478.88
2022-12-17T14:18:02.820Z,102481.00
2022-12-17T14:20:31.873Z,102480.38
2022-12-17T14:23:02.621Z,102479.97
2022-12-17T14:25:38.526Z,102479.63
2022-12-17T14:28:29.575Z,102483.09
2022-12-17T14:34:11.166Z,102479.22
2022-12-17T14:36:41.788Z,102483.56
2022-12-17T14:39:22.806Z,102490.06
2022-12-17T14:42:08.091Z,102486.69
2022-12-17T14:44:34.836Z,102484.34
2022-12-17T14:47:26.258Z,102474.84
2022-12-17T14:49:56.093Z,102480.72
2022-12-17T14:52:50.087Z,102485.59
2022-12-17T14:55:34.589Z,102490.78
2022-12-17T14:58:17.562Z,102488.28
2022-12-17T15:00:49.308Z,102483.22
2022-12-17T15:03:28.059Z,102485.44
2022-12-17T15:06:04.664Z,102487.16
2022-12-17T15:08:51.631Z,102487.16
2022-12-17T15:11:21.075Z,102489.97
2022-12-17T15:13:51.621Z,102490.91
2022-12-17T15:16:22.626Z,102490.91
2022-12-17T15:18:49.735Z,102493.38
2022-12-17T15:21:18.370Z,102492.13
2022-12-17T15:23:45.660Z,102498.06
2022-12-17T15:26:12.281Z,102502.41
2022-12-17T15:28:39.104Z,102500.69
2022-12-17T15:31:05.833Z,102507.53
2022-12-17T15:33:32.371Z,102503.16
2022-12-17T15:35:59.445Z,102504.03
2022-12-17T15:38:25.992Z,102504.94
2022-12-17T15:40:52.592Z,102508.28
2022-12-17T15:43:19.364Z,102510.03
2022-12-17T15:45:51.108Z,102515.16
2022-12-17T15:48:20.430Z,102517.00
2022-12-17T15:50:48.058Z,102515.16
2022-12-17T15:53:14.655Z,102515.22
2022-12-17T15:55:41.550Z,102517.91
2022-12-17T15:58:11.463Z,102515.38
2022-12-17T16:00:38.993Z,102509.44
2022-12-17T16:03:05.786Z,102509.47
2022-12-17T16:05:32.331Z,102516.28
2022-12-17T16:08:02.211Z,102517.09
2022-12-17T16:10:29.120Z,102519.66
2022-12-17T16:12:55.593Z,102519.66
2022-12-17T16:15:22.205Z,102521.38
2022-12-17T16:17:48.749Z,102518.84
2022-12-17T16:20:15.322Z,102512.88
2022-12-17T16:22:41.887Z,102516.25
2022-12-17T16:25:08.846Z,102520.78
2022-12-17T16:27:35.405Z,102528.66
2022-12-17T16:30:03.404Z,102533.81
2022-12-17T16:32:35.965Z,102540.50
2022-12-17T16:35:04.800Z,102525.91
2022-12-17T16:37:31.936Z,102531.69
2022-12-17T16:40:00.379Z,102537.44
2022-12-17T16:42:27.161Z,102534.81
2022-12-17T16:44:53.616Z,102534.78
2022-12-17T16:47:20.109Z,102538.09
2022-12-17T16:49:46.583Z,102543.97
2022-12-17T16:52:13.111Z,102536.34
2022-12-17T16:54:39.557Z,102541.31
2022-12-17T16:57:06.018Z,102547.91
2022-12-17T16:59:32.476Z,102548.66
2022-12-17T17:02:00.320Z,102540.03
2022-12-17T17:04:27.013Z,102546.78
2022-12-17T17:06:56.315Z,102555.09
2022-12-17T17:09:25.233Z,102549.03
2022-12-17T17:11:56.451Z,102554.13
2022-12-17T17:14:24.076Z,102552.38
2022-12-17T17:16:51.136Z,102540.44
2022-12-17T17:19:18.548Z,102547.19
2022-12-17T17:21:54.003Z,102541.25
2022-12-17T17:24:24.153Z,102544.59
2022-12-17T17:26:52.215Z,102548.00
2022-12-17T17:29:19.345Z,102548.66
2022-12-17T17:32:09.172Z,102559.59
2022-12-17T17:34:32.366Z,102567.22
2022-12-17T17:36:58.829Z,102563.75
2022-12-17T17:39:25.798Z,102568.84
2022-12-17T17:41:52.299Z,102568.84
2022-12-17T17:44:19.176Z,102564.63
2022-12-17T17:46:45.816Z,102567.22
2022-12-17T17:49:12.695Z,102573.09
2022-12-17T17:54:28.298Z,102557.81
2022-12-17T17:56:54.775Z,102558.69
2022-12-17T17:59:24.219Z,102561.16
2022-12-17T18:01:56.050Z,102563.59
2022-12-17T18:04:24.295Z,102558.53
2022-12-17T18:09:37.651Z,102568.69
2022-12-17T18:12:24.281Z,102560.94
2022-12-17T18:15:13.605Z,102558.25
2022-12-17T18:17:37.403Z,102569.19
2022-12-17T18:20:04.296Z,102574.22
2022-12-17T18:22:30.748Z,102571.63
2022-12-17T18:24:57.216Z,102570.81
2022-12-17T18:27:23.722Z,102564.94
2022-12-17T18:29:50.249Z,102561.47
2022-12-17T18:32:16.738Z,102562.22
2022-12-17T18:34:43.301Z,102573.13
2022-12-17T18:37:09.813Z,102568.06
2022-12-17T18:39:36.375Z,102568.00
2022-12-17T18:42:21.473Z,102572.19
2022-12-17T18:44:47.949Z,102576.41
2022-12-17T18:47:14.551Z,102575.59
2022-12-17T18:49:41.047Z,102574.75
2022-12-17T18:52:11.738Z,102574.69
2022-12-17T18:54:41.723Z,102572.94
2022-12-17T18:57:08.189Z,102577.16
2022-12-17T18:59:34.747Z,102577.84
2022-12-17T19:02:01.764Z,102575.19
2022-12-17T19:04:28.781Z,102581.13
2022-12-17T19:06:55.293Z,102587.72
2022-12-17T19:09:36.286Z,102584.25
2022-12-17T19:12:05.991Z,102581.59
2022-12-17T19:14:33.006Z,102579.06
2022-12-17T19:16:59.719Z,102581.72
2022-12-17T19:19:26.617Z,102585.06
2022-12-17T19:21:59.697Z,102585.00
2022-12-17T19:24:26.841Z,102580.91
2022-12-17T19:26:53.318Z,102583.38
2022-12-17T19:29:20.672Z,102585.84
2022-12-17T19:31:47.935Z,102590.06
2022-12-17T19:34:17.207Z,102596.00
2022-12-17T19:36:44.847Z,102588.34
2022-12-17T19:39:13.772Z,102590.78
2022-12-17T19:41:40.830Z,102584.13
2022-12-17T19:44:12.168Z,102590.78
2022-12-17T19:46:38.806Z,102587.47
2022-12-17T19:49:05.443Z,102605.22
2022-12-17T19:51:32.901Z,102600.06
2022-12-17T19:54:06.405Z,102600.91
2022-12-17T19:56:35.458Z,102597.50
2022-12-17T19:59:07.382Z,102601.78
2022-12-17T20:01:44.070Z,102603.56
2022-12-17T20:04:16.025Z,102612.84
2022-12-17T20:06:43.326Z,102616.94
2022-12-17T20:09:10.550Z,102618.69
2022-12-17T20:11:37.245Z,102618.63
2022-12-17T20:14:08.427Z,102620.28
2022-12-17T20:16:43.234Z,102615.09
2022-12-17T20:19:15.273Z,102616.66
2022-12-17T20:21:41.935Z,102610.66
2022-12-17T20:24:08.759Z,102610.66
2022-12-17T20:26:36.928Z,102611.50
2022-12-17T20:29:05.003Z,102610.66
2022-12-17T20:31:32.730Z,102618.94
2022-12-17T20:34:04.719Z,102616.28
2022-12-17T20:36:31.788Z,102608.63
2022-12-17T20:38:58.871Z,102612.09
2022-12-17T20:41:29.004Z,102617.97
2022-12-17T20:43:56.086Z,102618.03
2022-12-17T20:46:24.845Z,102624.00
2022-12-17T20:48:52.157Z,102623.19
2022-12-17T20:51:24.220Z,102623.25
2022-12-17T20:53:52.482Z,102625.88
2022-12-17T20:56:23.228Z,102627.47
2022-12-17T20:58:53.956Z,102639.41
2022-12-17T21:01:22.702Z,102636.88
2022-12-17T21:03:51.905Z,102630.06
2022-12-17T21:06:26.194Z,102630.06
2022-12-17T21:08:54.003Z,102629.22
2022-12-17T21:11:23.600Z,102631.69
2022-12-17T21:13:50.117Z,102630.81
2022-12-17T21:16:22.731Z,102632.53
2022-12-17T21:18:51.957Z,102622.41
2022-12-17T21:21:21.625Z,102630.06
2022-12-17T21:23:49.070Z,102626.66
2022-12-17T21:26:26.795Z,102630.94
2022-12-17T21:28:55.515Z,102635.16
2022-12-17T21:31:37.682Z,102628.41
2022-12-17T21:34:06.006Z,102625.88
2022-12-17T21:36:34.627Z,102619.94
2022-12-17T21:39:08.962Z,102622.41
2022-12-17T21:41:38.520Z,102621.59
2022-12-17T21:44:08.612Z,102618.19
2022-12-17T21:46:35.508Z,102615.59
2022-12-17T21:49:04.316Z,102622.22
2022-12-17T21:51:32.289Z,102624.00
2022-12-17T21:54:02.795Z,102625.72
2022-12-17T21:56:35.755Z,102618.81
2022-12-17T21:59:02.232Z,102625.56
2022-12-17T22:01:32.312Z,102622.22
2022-12-17T22:04:00.756Z,102622.22
2022-12-17T22:06:33.911Z,102618.94
2022-12-17T22:09:23.338Z,102632.53
2022-12-17T22:12:14.630Z,102640.22
2022-12-17T22:14:41.306Z,102645.38
2022-12-17T22:17:07.754Z,102641.25
2022-12-17T22:19:34.319Z,102627.59
2022-12-17T22:22:00.769Z,102631.97
2022-12-17T22:24:27.229Z,102642.25
2022-12-17T22:27:00.241Z,102642.38
2022-12-17T22:29:46.818Z,102645.16
2022-12-17T22:32:32.728Z,102640.06
2022-12-17T22:35:29.863Z,102648.56
2022-12-17T22:41:06.765Z,102653.69
2022-12-17T22:44:32.292Z,102645.31
2022-12-17T22:44:43.984Z,102649.66
2022-12-17T22:46:16.929Z,102642.84
2022-12-17T22:48:43.526Z,102660.53
2022-12-17T22:51:12.731Z,102667.25
2022-12-17T22:53:41.726Z,102666.56
2022-12-17T22:56:18.481Z,102669.97
2022-12-17T22:58:56.339Z,102673.44
2022-12-17T23:01:23.460Z,102673.38
2022-12-17T23:03:53.834Z,102679.25
2022-12-17T23:06:21.049Z,102681.78
2022-12-17T23:08:47.547Z,102681.84
2022-12-17T23:11:21.075Z,102678.44
2022-12-17T23:13:47.790Z,102670.81
2022-12-17T23:16:15.118Z,102669.09
2022-12-17T23:18:43.151Z,102664.81
2022-12-17T23:21:22.239Z,102662.28
2022-12-17T23:23:48.804Z,102666.50
2022-12-17T23:26:26.655Z,102660.53
2022-12-17T23:28:57.189Z,102668.94
2022-12-17T23:31:25.240Z,102662.97
2022-12-17T23:33:51.786Z,102666.25
2022-12-17T23:36:23.820Z,102660.25
2022-12-17T23:38:51.097Z,102665.31
2022-12-17T23:41:25.854Z,102668.66
2022-12-17T23:43:53.347Z,102662.56
2022-12-17T23:46:20.986Z,102653.13
2022-12-17T23:48:48.212Z,102656.47
2022-12-17T23:51:16.623Z,102659.72
2022-12-17T23:53:43.698Z,102651.09
2022-12-17T23:56:11.474Z,102654.44
2022-12-17T23:58:41.624Z,102656.00
